sensor_id;sensor_type;location;lat;lon;timestamp;temperature;humidity
9790;DHT22;4934;50.852;8.098;2023-12-07T00:01:18;2.10;99.90
9790;DHT22;4934;50.852;8.098;2023-12-07T00:03:44;2.10;99.90
9790;DHT22;4934;50.852;8.098;2023-12-07T00:06:10;2.00;99.90
9790;DHT22;4934;50.852;8.098;2023-12-07T00:08:35;2.00;99.90
9790;DHT22;4934;50.852;8.098;2023-12-07T00:11:01;2.00;99.90
9790;DHT22;4934;50.852;8.098;2023-12-07T00:13:27;2.00;99.90
9790;DHT22;4934;50.852;8.098;2023-12-07T00:15:52;2.00;99.90
9790;DHT22;4934;50.852;8.098;2023-12-07T00:18:18;2.00;99.90
9790;DHT22;4934;50.852;8.098;2023-12-07T00:20:44;2.00;99.90
9790;DHT22;4934;50.852;8.098;2023-12-07T00:23:10;2.00;99.90
9790;DHT22;4934;50.852;8.098;2023-12-07T00:25:36;2.00;99.90
9790;DHT22;4934;50.852;8.098;2023-12-07T00:28:01;1.90;99.90
9790;DHT22;4934;50.852;8.098;2023-12-07T00:30:28;1.90;99.90
9790;DHT22;4934;50.852;8.098;2023-12-07T00:32:54;1.80;99.90
9790;DHT22;4934;50.852;8.098;2023-12-07T00:35:19;1.80;99.90
9790;DHT22;4934;50.852;8.098;2023-12-07T00:37:47;1.80;99.90
9790;DHT22;4934;50.852;8.098;2023-12-07T00:40:13;1.80;99.90
9790;DHT22;4934;50.852;8.098;2023-12-07T00:42:39;1.80;99.90
9790;DHT22;4934;50.852;8.098;2023-12-07T00:45:05;1.70;99.90
9790;DHT22;4934;50.852;8.098;2023-12-07T00:47:31;1.70;99.90
9790;DHT22;4934;50.852;8.098;2023-12-07T00:49:57;1.70;99.90
9790;DHT22;4934;50.852;8.098;2023-12-07T00:52:22;1.70;99.90
9790;DHT22;4934;50.852;8.098;2023-12-07T00:54:48;1.70;99.90
9790;DHT22;4934;50.852;8.098;2023-12-07T00:57:13;1.60;99.90
9790;DHT22;4934;50.852;8.098;2023-12-07T00:59:39;1.60;99.90
9790;DHT22;4934;50.852;8.098;2023-12-07T01:02:08;1.50;99.90
9790;DHT22;4934;50.852;8.098;2023-12-07T01:04:34;1.50;99.90
9790;DHT22;4934;50.852;8.098;2023-12-07T01:06:59;1.50;99.90
9790;DHT22;4934;50.852;8.098;2023-12-07T01:09:26;1.60;99.90
9790;DHT22;4934;50.852;8.098;2023-12-07T01:11:51;1.60;99.90
9790;DHT22;4934;50.852;8.098;2023-12-07T01:14:17;1.60;99.90
9790;DHT22;4934;50.852;8.098;2023-12-07T01:16:44;1.50;99.90
9790;DHT22;4934;50.852;8.098;2023-12-07T01:19:10;1.50;99.90
9790;DHT22;4934;50.852;8.098;2023-12-07T01:21:35;1.50;99.90
9790;DHT22;4934;50.852;8.098;2023-12-07T01:24:01;1.60;99.90
9790;DHT22;4934;50.852;8.098;2023-12-07T01:26:27;1.50;99.90
9790;DHT22;4934;50.852;8.098;2023-12-07T01:28:53;1.50;99.90
9790;DHT22;4934;50.852;8.098;2023-12-07T01:31:18;1.60;99.90
9790;DHT22;4934;50.852;8.098;2023-12-07T01:33:44;1.60;99.90
9790;DHT22;4934;50.852;8.098;2023-12-07T01:36:10;1.60;99.90
9790;DHT22;4934;50.852;8.098;2023-12-07T01:38:36;1.60;99.90
9790;DHT22;4934;50.852;8.098;2023-12-07T01:41:02;1.50;99.90
9790;DHT22;4934;50.852;8.098;2023-12-07T01:43:27;1.50;99.90
9790;DHT22;4934;50.852;8.098;2023-12-07T01:45:55;1.50;99.90
9790;DHT22;4934;50.852;8.098;2023-12-07T01:48:23;1.50;99.90
9790;DHT22;4934;50.852;8.098;2023-12-07T01:50:50;1.50;99.90
9790;DHT22;4934;50.852;8.098;2023-12-07T01:53:17;1.50;99.90
9790;DHT22;4934;50.852;8.098;2023-12-07T01:55:43;1.50;99.90
9790;DHT22;4934;50.852;8.098;2023-12-07T01:58:09;1.40;99.90
9790;DHT22;4934;50.852;8.098;2023-12-07T02:00:35;1.40;99.90
9790;DHT22;4934;50.852;8.098;2023-12-07T02:03:04;1.40;99.90
9790;DHT22;4934;50.852;8.098;2023-12-07T02:05:31;1.40;99.90
9790;DHT22;4934;50.852;8.098;2023-12-07T02:07:57;1.30;99.90
9790;DHT22;4934;50.852;8.098;2023-12-07T02:10:24;1.30;99.90
9790;DHT22;4934;50.852;8.098;2023-12-07T02:12:51;1.30;99.90
9790;DHT22;4934;50.852;8.098;2023-12-07T02:15:18;1.30;99.90
9790;DHT22;4934;50.852;8.098;2023-12-07T02:20:29;1.30;99.90
9790;DHT22;4934;50.852;8.098;2023-12-07T02:23:00;1.30;99.90
9790;DHT22;4934;50.852;8.098;2023-12-07T02:25:36;1.30;99.90
9790;DHT22;4934;50.852;8.098;2023-12-07T02:28:05;1.20;99.90
9790;DHT22;4934;50.852;8.098;2023-12-07T02:30:30;1.20;99.90
9790;DHT22;4934;50.852;8.098;2023-12-07T02:32:56;1.20;99.90
9790;DHT22;4934;50.852;8.098;2023-12-07T02:35:22;1.30;99.90
9790;DHT22;4934;50.852;8.098;2023-12-07T02:37:51;1.30;99.90
9790;DHT22;4934;50.852;8.098;2023-12-07T02:40:25;1.30;99.90
9790;DHT22;4934;50.852;8.098;2023-12-07T02:42:53;1.20;99.90
9790;DHT22;4934;50.852;8.098;2023-12-07T02:45:19;1.10;99.90
9790;DHT22;4934;50.852;8.098;2023-12-07T02:47:44;1.10;99.90
9790;DHT22;4934;50.852;8.098;2023-12-07T02:50:11;1.10;99.90
9790;DHT22;4934;50.852;8.098;2023-12-07T02:52:37;1.10;99.90
9790;DHT22;4934;50.852;8.098;2023-12-07T02:55:03;1.10;99.90
9790;DHT22;4934;50.852;8.098;2023-12-07T02:57:29;1.10;99.90
9790;DHT22;4934;50.852;8.098;2023-12-07T02:59:56;1.00;99.90
9790;DHT22;4934;50.852;8.098;2023-12-07T03:02:22;1.00;99.90
9790;DHT22;4934;50.852;8.098;2023-12-07T03:04:47;1.00;99.90
9790;DHT22;4934;50.852;8.098;2023-12-07T03:07:13;1.10;99.90
9790;DHT22;4934;50.852;8.098;2023-12-07T03:09:38;1.10;99.90
9790;DHT22;4934;50.852;8.098;2023-12-07T03:12:05;1.10;99.90
9790;DHT22;4934;50.852;8.098;2023-12-07T03:14:30;1.10;99.90
9790;DHT22;4934;50.852;8.098;2023-12-07T03:16:59;1.10;99.90
9790;DHT22;4934;50.852;8.098;2023-12-07T03:19:25;1.10;99.90
9790;DHT22;4934;50.852;8.098;2023-12-07T03:21:51;1.20;99.90
9790;DHT22;4934;50.852;8.098;2023-12-07T03:24:16;1.30;99.90
9790;DHT22;4934;50.852;8.098;2023-12-07T03:26:42;1.30;99.90
9790;DHT22;4934;50.852;8.098;2023-12-07T03:29:07;1.20;99.90
9790;DHT22;4934;50.852;8.098;2023-12-07T03:31:33;1.10;99.90
9790;DHT22;4934;50.852;8.098;2023-12-07T03:33:59;1.00;99.90
9790;DHT22;4934;50.852;8.098;2023-12-07T03:36:26;1.00;99.90
9790;DHT22;4934;50.852;8.098;2023-12-07T03:38:52;1.10;99.90
9790;DHT22;4934;50.852;8.098;2023-12-07T03:41:18;1.10;99.90
9790;DHT22;4934;50.852;8.098;2023-12-07T03:43:44;1.00;99.90
9790;DHT22;4934;50.852;8.098;2023-12-07T03:46:09;1.00;99.90
9790;DHT22;4934;50.852;8.098;2023-12-07T03:48:35;1.00;99.90
9790;DHT22;4934;50.852;8.098;2023-12-07T03:51:01;1.00;99.90
9790;DHT22;4934;50.852;8.098;2023-12-07T03:53:27;0.90;99.90
9790;DHT22;4934;50.852;8.098;2023-12-07T03:55:53;0.90;99.90
9790;DHT22;4934;50.852;8.098;2023-12-07T03:58:18;0.90;99.90
9790;DHT22;4934;50.852;8.098;2023-12-07T04:00:45;0.80;99.90
9790;DHT22;4934;50.852;8.098;2023-12-07T04:03:11;0.90;99.90
9790;DHT22;4934;50.852;8.098;2023-12-07T04:05:36;0.90;99.90
9790;DHT22;4934;50.852;8.098;2023-12-07T04:08:03;0.90;99.90
9790;DHT22;4934;50.852;8.098;2023-12-07T04:10:30;0.90;99.90
9790;DHT22;4934;50.852;8.098;2023-12-07T04:12:56;0.90;99.90
9790;DHT22;4934;50.852;8.098;2023-12-07T04:15:21;0.90;99.90
9790;DHT22;4934;50.852;8.098;2023-12-07T04:17:47;0.90;99.90
9790;DHT22;4934;50.852;8.098;2023-12-07T04:20:13;0.90;99.90
9790;DHT22;4934;50.852;8.098;2023-12-07T04:22:39;0.90;99.90
9790;DHT22;4934;50.852;8.098;2023-12-07T04:25:05;0.90;99.90
9790;DHT22;4934;50.852;8.098;2023-12-07T04:27:33;0.90;99.90
9790;DHT22;4934;50.852;8.098;2023-12-07T04:29:58;1.00;99.90
9790;DHT22;4934;50.852;8.098;2023-12-07T04:32:24;1.00;99.90
9790;DHT22;4934;50.852;8.098;2023-12-07T04:34:51;1.00;99.90
9790;DHT22;4934;50.852;8.098;2023-12-07T04:37:16;0.90;99.90
9790;DHT22;4934;50.852;8.098;2023-12-07T04:39:42;0.80;99.90
9790;DHT22;4934;50.852;8.098;2023-12-07T04:42:07;0.80;99.90
9790;DHT22;4934;50.852;8.098;2023-12-07T04:44:33;0.80;99.90
9790;DHT22;4934;50.852;8.098;2023-12-07T04:46:59;0.80;99.90
9790;DHT22;4934;50.852;8.098;2023-12-07T04:49:24;0.80;99.90
9790;DHT22;4934;50.852;8.098;2023-12-07T04:51:50;0.80;99.90
9790;DHT22;4934;50.852;8.098;2023-12-07T04:54:16;0.60;99.90
9790;DHT22;4934;50.852;8.098;2023-12-07T04:56:42;0.60;99.90
9790;DHT22;4934;50.852;8.098;2023-12-07T04:59:09;0.60;99.90
9790;DHT22;4934;50.852;8.098;2023-12-07T05:01:38;0.60;99.90
9790;DHT22;4934;50.852;8.098;2023-12-07T05:04:04;0.60;99.90
9790;DHT22;4934;50.852;8.098;2023-12-07T05:06:31;0.60;99.90
9790;DHT22;4934;50.852;8.098;2023-12-07T05:08:57;0.50;99.90
9790;DHT22;4934;50.852;8.098;2023-12-07T05:11:22;0.50;99.90
9790;DHT22;4934;50.852;8.098;2023-12-07T05:13:48;0.40;99.90
9790;DHT22;4934;50.852;8.098;2023-12-07T05:16:14;0.30;99.90
9790;DHT22;4934;50.852;8.098;2023-12-07T05:18:40;0.30;99.90
9790;DHT22;4934;50.852;8.098;2023-12-07T05:21:06;0.20;99.90
9790;DHT22;4934;50.852;8.098;2023-12-07T05:23:32;0.10;99.90
9790;DHT22;4934;50.852;8.098;2023-12-07T05:25:57;0.10;99.90
9790;DHT22;4934;50.852;8.098;2023-12-07T05:28:23;0.10;99.90
9790;DHT22;4934;50.852;8.098;2023-12-07T05:30:48;0.00;99.90
9790;DHT22;4934;50.852;8.098;2023-12-07T05:33:15;0.00;99.90
9790;DHT22;4934;50.852;8.098;2023-12-07T05:35:41;-0.10;99.90
9790;DHT22;4934;50.852;8.098;2023-12-07T05:38:07;-0.10;99.90
9790;DHT22;4934;50.852;8.098;2023-12-07T05:40:32;-0.10;99.90
9790;DHT22;4934;50.852;8.098;2023-12-07T05:42:59;-0.10;99.90
9790;DHT22;4934;50.852;8.098;2023-12-07T05:45:25;-0.10;99.90
9790;DHT22;4934;50.852;8.098;2023-12-07T05:47:51;0.00;99.90
9790;DHT22;4934;50.852;8.098;2023-12-07T05:50:17;0.00;99.90
9790;DHT22;4934;50.852;8.098;2023-12-07T05:52:43;0.00;99.90
9790;DHT22;4934;50.852;8.098;2023-12-07T05:55:09;0.10;99.90
9790;DHT22;4934;50.852;8.098;2023-12-07T05:57:35;0.10;99.90
9790;DHT22;4934;50.852;8.098;2023-12-07T06:00:00;0.10;99.90
9790;DHT22;4934;50.852;8.098;2023-12-07T06:02:26;0.10;99.90
9790;DHT22;4934;50.852;8.098;2023-12-07T06:04:52;0.10;99.90
9790;DHT22;4934;50.852;8.098;2023-12-07T06:07:18;0.10;99.90
9790;DHT22;4934;50.852;8.098;2023-12-07T06:09:44;0.10;99.90
9790;DHT22;4934;50.852;8.098;2023-12-07T06:12:09;0.10;99.90
9790;DHT22;4934;50.852;8.098;2023-12-07T06:14:35;0.10;99.90
9790;DHT22;4934;50.852;8.098;2023-12-07T06:17:01;0.10;99.90
9790;DHT22;4934;50.852;8.098;2023-12-07T06:19:26;0.20;99.90
9790;DHT22;4934;50.852;8.098;2023-12-07T06:21:52;0.20;99.90
9790;DHT22;4934;50.852;8.098;2023-12-07T06:24:17;0.30;99.90
9790;DHT22;4934;50.852;8.098;2023-12-07T06:26:43;0.40;99.90
9790;DHT22;4934;50.852;8.098;2023-12-07T06:29:08;0.30;99.90
9790;DHT22;4934;50.852;8.098;2023-12-07T06:31:34;0.40;99.90
9790;DHT22;4934;50.852;8.098;2023-12-07T06:34:00;0.30;99.90
9790;DHT22;4934;50.852;8.098;2023-12-07T06:36:26;0.40;99.90
9790;DHT22;4934;50.852;8.098;2023-12-07T06:38:52;0.40;99.90
9790;DHT22;4934;50.852;8.098;2023-12-07T06:41:18;0.40;99.90
9790;DHT22;4934;50.852;8.098;2023-12-07T06:43:44;0.40;99.90
9790;DHT22;4934;50.852;8.098;2023-12-07T06:46:13;0.40;99.90
9790;DHT22;4934;50.852;8.098;2023-12-07T06:48:41;0.40;99.90
9790;DHT22;4934;50.852;8.098;2023-12-07T06:51:06;0.50;99.90
9790;DHT22;4934;50.852;8.098;2023-12-07T06:53:32;0.40;99.90
9790;DHT22;4934;50.852;8.098;2023-12-07T06:55:58;0.40;99.90
9790;DHT22;4934;50.852;8.098;2023-12-07T06:58:24;0.50;99.90
9790;DHT22;4934;50.852;8.098;2023-12-07T07:00:50;0.50;99.90
9790;DHT22;4934;50.852;8.098;2023-12-07T07:03:16;0.40;99.90
9790;DHT22;4934;50.852;8.098;2023-12-07T07:05:42;0.40;99.90
9790;DHT22;4934;50.852;8.098;2023-12-07T07:08:07;0.50;99.90
9790;DHT22;4934;50.852;8.098;2023-12-07T07:10:34;0.50;99.90
9790;DHT22;4934;50.852;8.098;2023-12-07T07:13:01;0.40;99.90
9790;DHT22;4934;50.852;8.098;2023-12-07T07:15:33;0.50;99.90
9790;DHT22;4934;50.852;8.098;2023-12-07T07:17:59;0.50;99.90
9790;DHT22;4934;50.852;8.098;2023-12-07T07:20:25;0.50;99.90
9790;DHT22;4934;50.852;8.098;2023-12-07T07:22:51;0.60;99.90
9790;DHT22;4934;50.852;8.098;2023-12-07T07:25:17;0.50;99.90
9790;DHT22;4934;50.852;8.098;2023-12-07T07:27:45;0.50;99.90
9790;DHT22;4934;50.852;8.098;2023-12-07T07:30:11;0.60;99.90
9790;DHT22;4934;50.852;8.098;2023-12-07T07:32:37;0.60;99.90
9790;DHT22;4934;50.852;8.098;2023-12-07T07:35:03;0.60;99.90
9790;DHT22;4934;50.852;8.098;2023-12-07T07:37:28;0.60;99.90
9790;DHT22;4934;50.852;8.098;2023-12-07T07:39:54;0.70;99.90
9790;DHT22;4934;50.852;8.098;2023-12-07T07:42:20;0.80;99.90
9790;DHT22;4934;50.852;8.098;2023-12-07T07:44:45;0.80;99.90
9790;DHT22;4934;50.852;8.098;2023-12-07T07:47:11;0.90;99.90
9790;DHT22;4934;50.852;8.098;2023-12-07T07:49:36;0.80;99.90
9790;DHT22;4934;50.852;8.098;2023-12-07T07:52:02;0.90;99.90
9790;DHT22;4934;50.852;8.098;2023-12-07T07:54:30;0.90;99.90
9790;DHT22;4934;50.852;8.098;2023-12-07T07:56:56;0.90;99.90
9790;DHT22;4934;50.852;8.098;2023-12-07T07:59:21;1.00;99.90
9790;DHT22;4934;50.852;8.098;2023-12-07T08:01:47;1.00;99.90
9790;DHT22;4934;50.852;8.098;2023-12-07T08:04:12;1.00;99.90
9790;DHT22;4934;50.852;8.098;2023-12-07T08:06:38;1.00;99.90
9790;DHT22;4934;50.852;8.098;2023-12-07T08:09:04;1.00;99.90
9790;DHT22;4934;50.852;8.098;2023-12-07T08:11:29;1.10;99.90
9790;DHT22;4934;50.852;8.098;2023-12-07T08:13:55;1.10;99.90
9790;DHT22;4934;50.852;8.098;2023-12-07T08:16:21;1.10;99.90
9790;DHT22;4934;50.852;8.098;2023-12-07T08:18:47;1.00;99.90
9790;DHT22;4934;50.852;8.098;2023-12-07T08:21:22;1.10;99.90
9790;DHT22;4934;50.852;8.098;2023-12-07T08:23:48;1.20;99.90
9790;DHT22;4934;50.852;8.098;2023-12-07T08:26:14;1.20;99.90
9790;DHT22;4934;50.852;8.098;2023-12-07T08:28:40;1.20;99.90
9790;DHT22;4934;50.852;8.098;2023-12-07T08:31:06;1.20;99.90
9790;DHT22;4934;50.852;8.098;2023-12-07T08:33:35;1.20;99.90
9790;DHT22;4934;50.852;8.098;2023-12-07T08:36:01;1.30;99.90
9790;DHT22;4934;50.852;8.098;2023-12-07T08:38:27;1.20;99.90
9790;DHT22;4934;50.852;8.098;2023-12-07T08:40:52;1.20;99.90
9790;DHT22;4934;50.852;8.098;2023-12-07T08:43:22;1.20;99.90
9790;DHT22;4934;50.852;8.098;2023-12-07T08:45:51;1.10;99.90
9790;DHT22;4934;50.852;8.098;2023-12-07T08:48:17;1.10;99.90
9790;DHT22;4934;50.852;8.098;2023-12-07T08:50:43;1.00;99.90
9790;DHT22;4934;50.852;8.098;2023-12-07T08:53:09;1.00;99.90
9790;DHT22;4934;50.852;8.098;2023-12-07T08:55:34;0.90;99.90
9790;DHT22;4934;50.852;8.098;2023-12-07T08:58:00;0.90;99.90
9790;DHT22;4934;50.852;8.098;2023-12-07T09:00:26;0.90;99.90
9790;DHT22;4934;50.852;8.098;2023-12-07T09:02:51;0.90;99.90
9790;DHT22;4934;50.852;8.098;2023-12-07T09:05:17;0.90;99.90
9790;DHT22;4934;50.852;8.098;2023-12-07T09:07:43;0.90;99.90
9790;DHT22;4934;50.852;8.098;2023-12-07T09:10:09;0.90;99.90
9790;DHT22;4934;50.852;8.098;2023-12-07T09:12:35;0.90;99.90
9790;DHT22;4934;50.852;8.098;2023-12-07T09:15:02;0.90;99.90
9790;DHT22;4934;50.852;8.098;2023-12-07T09:17:28;1.00;99.90
9790;DHT22;4934;50.852;8.098;2023-12-07T09:19:53;1.00;99.90
9790;DHT22;4934;50.852;8.098;2023-12-07T09:22:19;1.00;99.90
9790;DHT22;4934;50.852;8.098;2023-12-07T09:24:45;1.10;99.90
9790;DHT22;4934;50.852;8.098;2023-12-07T09:27:13;1.10;99.90
9790;DHT22;4934;50.852;8.098;2023-12-07T09:29:38;1.10;99.90
9790;DHT22;4934;50.852;8.098;2023-12-07T09:32:05;1.10;99.90
9790;DHT22;4934;50.852;8.098;2023-12-07T09:34:31;1.20;99.90
9790;DHT22;4934;50.852;8.098;2023-12-07T09:37:09;1.20;99.90
9790;DHT22;4934;50.852;8.098;2023-12-07T09:39:35;1.30;99.90
9790;DHT22;4934;50.852;8.098;2023-12-07T09:42:01;1.30;99.90
9790;DHT22;4934;50.852;8.098;2023-12-07T09:44:27;1.40;99.90
9790;DHT22;4934;50.852;8.098;2023-12-07T09:46:53;1.50;99.90
9790;DHT22;4934;50.852;8.098;2023-12-07T09:49:23;1.60;99.90
9790;DHT22;4934;50.852;8.098;2023-12-07T09:51:48;1.70;99.90
9790;DHT22;4934;50.852;8.098;2023-12-07T09:54:16;1.70;99.90
9790;DHT22;4934;50.852;8.098;2023-12-07T09:56:43;1.70;99.90
9790;DHT22;4934;50.852;8.098;2023-12-07T09:59:09;1.80;99.90
9790;DHT22;4934;50.852;8.098;2023-12-07T10:01:34;1.80;99.90
9790;DHT22;4934;50.852;8.098;2023-12-07T10:04:19;1.90;99.90
9790;DHT22;4934;50.852;8.098;2023-12-07T10:06:46;2.00;99.90
9790;DHT22;4934;50.852;8.098;2023-12-07T10:09:13;2.00;99.90
9790;DHT22;4934;50.852;8.098;2023-12-07T10:11:40;2.00;99.90
9790;DHT22;4934;50.852;8.098;2023-12-07T10:14:07;2.10;99.90
9790;DHT22;4934;50.852;8.098;2023-12-07T10:16:36;2.20;99.90
9790;DHT22;4934;50.852;8.098;2023-12-07T10:19:28;2.20;99.90
9790;DHT22;4934;50.852;8.098;2023-12-07T10:21:54;2.20;99.90
9790;DHT22;4934;50.852;8.098;2023-12-07T10:24:22;2.40;99.90
9790;DHT22;4934;50.852;8.098;2023-12-07T10:26:49;2.30;99.90
9790;DHT22;4934;50.852;8.098;2023-12-07T10:29:17;2.40;99.90
9790;DHT22;4934;50.852;8.098;2023-12-07T10:31:44;2.30;99.90
9790;DHT22;4934;50.852;8.098;2023-12-07T10:34:09;2.50;99.90
9790;DHT22;4934;50.852;8.098;2023-12-07T10:36:35;2.40;99.90
9790;DHT22;4934;50.852;8.098;2023-12-07T10:39:01;2.40;99.90
9790;DHT22;4934;50.852;8.098;2023-12-07T10:41:27;2.50;99.90
9790;DHT22;4934;50.852;8.098;2023-12-07T10:44:04;2.50;99.90
9790;DHT22;4934;50.852;8.098;2023-12-07T10:46:33;2.40;99.90
9790;DHT22;4934;50.852;8.098;2023-12-07T10:49:01;2.40;99.90
9790;DHT22;4934;50.852;8.098;2023-12-07T10:51:37;2.40;99.90
9790;DHT22;4934;50.852;8.098;2023-12-07T10:54:04;2.50;99.90
9790;DHT22;4934;50.852;8.098;2023-12-07T10:56:39;2.60;99.90
9790;DHT22;4934;50.852;8.098;2023-12-07T10:59:07;2.60;99.90
9790;DHT22;4934;50.852;8.098;2023-12-07T11:01:40;2.60;99.90
9790;DHT22;4934;50.852;8.098;2023-12-07T11:04:06;2.50;99.90
9790;DHT22;4934;50.852;8.098;2023-12-07T11:06:35;2.50;99.90
9790;DHT22;4934;50.852;8.098;2023-12-07T11:09:08;2.50;99.90
9790;DHT22;4934;50.852;8.098;2023-12-07T11:11:59;2.60;99.90
9790;DHT22;4934;50.852;8.098;2023-12-07T11:14:26;2.60;99.90
9790;DHT22;4934;50.852;8.098;2023-12-07T11:16:52;2.60;99.90
9790;DHT22;4934;50.852;8.098;2023-12-07T11:22:05;2.40;99.90
9790;DHT22;4934;50.852;8.098;2023-12-07T11:24:31;2.40;99.90
9790;DHT22;4934;50.852;8.098;2023-12-07T11:26:57;2.40;99.90
9790;DHT22;4934;50.852;8.098;2023-12-07T11:29:28;2.30;99.90
9790;DHT22;4934;50.852;8.098;2023-12-07T11:34:39;2.10;99.90
9790;DHT22;4934;50.852;8.098;2023-12-07T11:37:08;2.10;99.90
9790;DHT22;4934;50.852;8.098;2023-12-07T11:39:35;2.20;99.90
9790;DHT22;4934;50.852;8.098;2023-12-07T11:42:19;2.10;99.90
9790;DHT22;4934;50.852;8.098;2023-12-07T11:44:47;2.20;99.90
9790;DHT22;4934;50.852;8.098;2023-12-07T11:47:20;2.00;99.90
9790;DHT22;4934;50.852;8.098;2023-12-07T11:49:46;2.10;99.90
9790;DHT22;4934;50.852;8.098;2023-12-07T11:52:19;2.30;99.90
9790;DHT22;4934;50.852;8.098;2023-12-07T11:54:46;2.40;99.90
9790;DHT22;4934;50.852;8.098;2023-12-07T11:57:16;2.60;99.90
9790;DHT22;4934;50.852;8.098;2023-12-07T11:59:44;2.70;99.90
9790;DHT22;4934;50.852;8.098;2023-12-07T12:02:13;2.70;99.90
9790;DHT22;4934;50.852;8.098;2023-12-07T12:04:42;2.70;99.90
9790;DHT22;4934;50.852;8.098;2023-12-07T12:07:08;2.80;99.90
9790;DHT22;4934;50.852;8.098;2023-12-07T12:09:33;2.80;99.90
9790;DHT22;4934;50.852;8.098;2023-12-07T12:11:59;2.80;99.90
9790;DHT22;4934;50.852;8.098;2023-12-07T12:14:26;2.70;99.90
9790;DHT22;4934;50.852;8.098;2023-12-07T12:16:52;2.80;99.90
9790;DHT22;4934;50.852;8.098;2023-12-07T12:19:18;2.70;99.90
9790;DHT22;4934;50.852;8.098;2023-12-07T12:21:43;2.70;99.90
9790;DHT22;4934;50.852;8.098;2023-12-07T12:24:10;2.70;99.90
9790;DHT22;4934;50.852;8.098;2023-12-07T12:26:38;2.70;99.90
9790;DHT22;4934;50.852;8.098;2023-12-07T12:29:05;2.70;99.90
9790;DHT22;4934;50.852;8.098;2023-12-07T12:31:32;2.80;99.90
9790;DHT22;4934;50.852;8.098;2023-12-07T12:33:57;2.80;99.90
9790;DHT22;4934;50.852;8.098;2023-12-07T12:36:26;2.80;99.90
9790;DHT22;4934;50.852;8.098;2023-12-07T12:38:53;2.70;99.90
9790;DHT22;4934;50.852;8.098;2023-12-07T12:41:20;2.70;99.90
9790;DHT22;4934;50.852;8.098;2023-12-07T12:43:46;2.80;99.90
9790;DHT22;4934;50.852;8.098;2023-12-07T12:46:13;2.60;99.90
9790;DHT22;4934;50.852;8.098;2023-12-07T12:48:58;2.70;99.90
9790;DHT22;4934;50.852;8.098;2023-12-07T12:51:25;2.70;99.90
9790;DHT22;4934;50.852;8.098;2023-12-07T12:53:52;2.70;99.90
9790;DHT22;4934;50.852;8.098;2023-12-07T12:56:19;2.70;99.90
9790;DHT22;4934;50.852;8.098;2023-12-07T12:58:52;2.80;99.90
9790;DHT22;4934;50.852;8.098;2023-12-07T13:01:18;2.80;99.90
9790;DHT22;4934;50.852;8.098;2023-12-07T13:03:44;2.80;99.90
9790;DHT22;4934;50.852;8.098;2023-12-07T13:06:14;2.90;99.90
9790;DHT22;4934;50.852;8.098;2023-12-07T13:08:44;3.00;99.90
9790;DHT22;4934;50.852;8.098;2023-12-07T13:11:14;3.00;99.90
9790;DHT22;4934;50.852;8.098;2023-12-07T13:13:40;2.80;99.90
9790;DHT22;4934;50.852;8.098;2023-12-07T13:16:06;2.70;99.90
9790;DHT22;4934;50.852;8.098;2023-12-07T13:18:32;2.60;99.90
9790;DHT22;4934;50.852;8.098;2023-12-07T13:20:57;2.60;99.90
9790;DHT22;4934;50.852;8.098;2023-12-07T13:23:25;2.50;99.90
9790;DHT22;4934;50.852;8.098;2023-12-07T13:25:51;2.50;99.90
9790;DHT22;4934;50.852;8.098;2023-12-07T13:28:16;2.60;99.90
9790;DHT22;4934;50.852;8.098;2023-12-07T13:30:42;2.60;99.90
9790;DHT22;4934;50.852;8.098;2023-12-07T13:33:07;2.40;99.90
9790;DHT22;4934;50.852;8.098;2023-12-07T13:35:34;2.40;99.90
9790;DHT22;4934;50.852;8.098;2023-12-07T13:38:00;2.40;99.90
9790;DHT22;4934;50.852;8.098;2023-12-07T13:40:26;2.40;99.90
9790;DHT22;4934;50.852;8.098;2023-12-07T13:42:52;2.40;99.90
9790;DHT22;4934;50.852;8.098;2023-12-07T13:45:18;2.50;99.90
9790;DHT22;4934;50.852;8.098;2023-12-07T13:47:45;2.40;99.90
9790;DHT22;4934;50.852;8.098;2023-12-07T13:50:10;2.40;99.90
9790;DHT22;4934;50.852;8.098;2023-12-07T13:52:38;2.50;99.90
9790;DHT22;4934;50.852;8.098;2023-12-07T13:55:04;2.40;99.90
9790;DHT22;4934;50.852;8.098;2023-12-07T13:57:30;2.40;99.90
9790;DHT22;4934;50.852;8.098;2023-12-07T13:59:56;2.40;99.90
9790;DHT22;4934;50.852;8.098;2023-12-07T14:02:22;2.30;99.90
9790;DHT22;4934;50.852;8.098;2023-12-07T14:04:49;2.20;99.90
9790;DHT22;4934;50.852;8.098;2023-12-07T14:07:17;2.20;99.90
9790;DHT22;4934;50.852;8.098;2023-12-07T14:09:44;2.20;99.90
9790;DHT22;4934;50.852;8.098;2023-12-07T14:12:10;2.00;99.90
9790;DHT22;4934;50.852;8.098;2023-12-07T14:14:39;2.00;99.90
9790;DHT22;4934;50.852;8.098;2023-12-07T14:17:05;2.00;99.90
9790;DHT22;4934;50.852;8.098;2023-12-07T14:19:31;1.90;99.90
9790;DHT22;4934;50.852;8.098;2023-12-07T14:21:56;1.90;99.90
9790;DHT22;4934;50.852;8.098;2023-12-07T14:24:23;1.80;99.90
9790;DHT22;4934;50.852;8.098;2023-12-07T14:26:49;1.70;99.90
9790;DHT22;4934;50.852;8.098;2023-12-07T14:29:15;1.70;99.90
9790;DHT22;4934;50.852;8.098;2023-12-07T14:31:43;1.70;99.90
9790;DHT22;4934;50.852;8.098;2023-12-07T14:34:10;1.60;99.90
9790;DHT22;4934;50.852;8.098;2023-12-07T14:36:35;1.50;99.90
9790;DHT22;4934;50.852;8.098;2023-12-07T14:39:04;1.50;99.90
9790;DHT22;4934;50.852;8.098;2023-12-07T14:41:32;1.50;99.90
9790;DHT22;4934;50.852;8.098;2023-12-07T14:43:57;1.50;99.90
9790;DHT22;4934;50.852;8.098;2023-12-07T14:46:23;1.50;99.90
9790;DHT22;4934;50.852;8.098;2023-12-07T14:48:49;1.40;99.90
9790;DHT22;4934;50.852;8.098;2023-12-07T14:51:18;1.40;99.90
9790;DHT22;4934;50.852;8.098;2023-12-07T14:53:46;1.30;99.90
9790;DHT22;4934;50.852;8.098;2023-12-07T14:56:12;1.30;99.90
9790;DHT22;4934;50.852;8.098;2023-12-07T14:58:37;1.30;99.90
9790;DHT22;4934;50.852;8.098;2023-12-07T15:01:05;1.30;99.90
9790;DHT22;4934;50.852;8.098;2023-12-07T15:03:31;1.20;99.90
9790;DHT22;4934;50.852;8.098;2023-12-07T15:05:57;1.20;99.90
9790;DHT22;4934;50.852;8.098;2023-12-07T15:08:22;1.20;99.90
9790;DHT22;4934;50.852;8.098;2023-12-07T15:10:48;1.30;99.90
9790;DHT22;4934;50.852;8.098;2023-12-07T15:13:18;1.20;99.90
9790;DHT22;4934;50.852;8.098;2023-12-07T15:15:44;1.20;99.90
9790;DHT22;4934;50.852;8.098;2023-12-07T15:18:10;1.10;99.90
9790;DHT22;4934;50.852;8.098;2023-12-07T15:20:36;1.10;99.90
9790;DHT22;4934;50.852;8.098;2023-12-07T15:23:01;1.00;99.90
9790;DHT22;4934;50.852;8.098;2023-12-07T15:25:28;1.00;99.90
9790;DHT22;4934;50.852;8.098;2023-12-07T15:27:54;0.90;99.90
9790;DHT22;4934;50.852;8.098;2023-12-07T15:30:20;0.90;99.90
9790;DHT22;4934;50.852;8.098;2023-12-07T15:32:49;0.90;99.90
9790;DHT22;4934;50.852;8.098;2023-12-07T15:35:15;0.90;99.90
9790;DHT22;4934;50.852;8.098;2023-12-07T15:37:41;1.00;99.90
9790;DHT22;4934;50.852;8.098;2023-12-07T15:40:07;0.90;99.90
9790;DHT22;4934;50.852;8.098;2023-12-07T15:42:39;0.80;99.90
9790;DHT22;4934;50.852;8.098;2023-12-07T15:45:06;0.90;99.90
9790;DHT22;4934;50.852;8.098;2023-12-07T15:47:33;0.90;99.90
9790;DHT22;4934;50.852;8.098;2023-12-07T15:49:59;0.80;99.90
9790;DHT22;4934;50.852;8.098;2023-12-07T15:52:24;0.80;99.90
9790;DHT22;4934;50.852;8.098;2023-12-07T15:54:50;0.80;99.90
9790;DHT22;4934;50.852;8.098;2023-12-07T15:57:16;0.80;99.90
9790;DHT22;4934;50.852;8.098;2023-12-07T15:59:42;0.80;99.90
9790;DHT22;4934;50.852;8.098;2023-12-07T16:02:08;0.80;99.90
9790;DHT22;4934;50.852;8.098;2023-12-07T16:04:34;0.70;99.90
9790;DHT22;4934;50.852;8.098;2023-12-07T16:07:01;0.70;99.90
9790;DHT22;4934;50.852;8.098;2023-12-07T16:09:34;0.70;99.90
9790;DHT22;4934;50.852;8.098;2023-12-07T16:12:00;0.70;99.90
9790;DHT22;4934;50.852;8.098;2023-12-07T16:14:25;0.60;99.90
9790;DHT22;4934;50.852;8.098;2023-12-07T16:16:51;0.60;99.90
9790;DHT22;4934;50.852;8.098;2023-12-07T16:19:17;0.60;99.90
9790;DHT22;4934;50.852;8.098;2023-12-07T16:21:42;0.50;99.90